createdAt,value
2023-05-16T00:00:39.105Z,0.00
2023-05-16T00:01:39.117Z,0.00
2023-05-16T00:02:39.116Z,0.00
2023-05-16T00:03:39.186Z,0.00
2023-05-16T00:04:39.143Z,0.00
2023-05-16T00:05:39.133Z,0.00
2023-05-16T00:06:39.047Z,0.00
2023-05-16T00:07:39.043Z,0.00
2023-05-16T00:08:39.075Z,0.00
2023-05-16T00:09:39.092Z,0.00
2023-05-16T00:10:39.033Z,0.00
2023-05-16T00:11:39.035Z,0.00
2023-05-16T00:12:38.981Z,0.00
2023-05-16T00:13:39.007Z,0.00
2023-05-16T00:14:38.995Z,0.00
2023-05-16T00:15:39.020Z,0.00
2023-05-16T00:16:39.009Z,0.00
2023-05-16T00:17:39.022Z,0.00
2023-05-16T00:18:39.074Z,0.00
2023-05-16T00:19:38.941Z,0.00
2023-05-16T00:20:39.015Z,0.00
2023-05-16T00:21:39.065Z,0.00
2023-05-16T00:23:11.675Z,0.00
2023-05-16T00:23:38.910Z,0.00
2023-05-16T00:24:38.922Z,0.00
2023-05-16T00:25:38.930Z,0.00
2023-05-16T00:26:38.874Z,0.00
2023-05-16T00:27:38.890Z,0.00
2023-05-16T00:28:38.890Z,0.00
2023-05-16T00:29:38.915Z,0.00
2023-05-16T00:30:38.866Z,0.00
2023-05-16T00:31:38.914Z,0.00
2023-05-16T00:32:39.804Z,0.00
2023-05-16T00:33:38.874Z,0.00
2023-05-16T00:34:38.932Z,0.00
2023-05-16T00:35:38.837Z,0.00
2023-05-16T00:36:39.858Z,0.00
2023-05-16T00:37:38.838Z,0.00
2023-05-16T00:38:38.885Z,0.00
2023-05-16T00:39:38.810Z,0.00
2023-05-16T00:40:38.791Z,0.00
2023-05-16T00:41:38.837Z,0.00
2023-05-16T00:42:38.796Z,0.00
2023-05-16T00:43:38.839Z,0.00
2023-05-16T00:44:39.784Z,0.00
2023-05-16T00:45:38.771Z,0.00
2023-05-16T00:46:38.947Z,0.00
2023-05-16T00:47:38.817Z,0.00
2023-05-16T00:48:38.799Z,0.00
2023-05-16T00:49:38.708Z,0.00
2023-05-16T00:50:38.718Z,0.00
2023-05-16T00:51:38.697Z,0.00
2023-05-16T00:52:38.711Z,0.00
2023-05-16T00:53:38.731Z,0.00
2023-05-16T00:54:38.706Z,0.00
2023-05-16T00:55:38.691Z,0.00
2023-05-16T00:56:38.651Z,0.00
2023-05-16T00:57:38.669Z,0.00
2023-05-16T00:58:38.702Z,0.00
2023-05-16T00:59:38.727Z,0.00
2023-05-16T01:00:38.722Z,0.00
2023-05-16T01:01:38.669Z,0.00
2023-05-16T01:02:38.791Z,0.00
2023-05-16T01:03:38.728Z,0.00
2023-05-16T01:04:38.628Z,0.00
2023-05-16T01:05:38.601Z,0.00
2023-05-16T01:06:38.618Z,0.00
2023-05-16T01:07:38.562Z,0.00
2023-05-16T01:08:38.571Z,0.00
2023-05-16T01:09:38.578Z,0.00
2023-05-16T01:10:38.584Z,0.00
2023-05-16T01:11:38.554Z,0.00
2023-05-16T01:12:38.533Z,0.00
2023-05-16T01:13:38.556Z,0.00
2023-05-16T01:14:38.580Z,0.00
2023-05-16T01:15:38.535Z,0.00
2023-05-16T01:16:38.555Z,0.00
2023-05-16T01:17:38.545Z,0.00
2023-05-16T01:18:38.559Z,0.00
2023-05-16T01:19:38.499Z,0.00
2023-05-16T01:20:38.519Z,0.00
2023-05-16T01:21:38.459Z,0.00
2023-05-16T01:22:38.460Z,0.00
2023-05-16T01:23:38.454Z,0.00
2023-05-16T01:24:38.462Z,0.00
2023-05-16T01:25:38.426Z,0.00
2023-05-16T01:26:38.416Z,0.00
2023-05-16T01:27:38.438Z,0.00
2023-05-16T01:28:38.392Z,0.00
2023-05-16T01:29:38.405Z,0.00
2023-05-16T01:30:38.422Z,0.00
2023-05-16T01:31:38.393Z,0.00
2023-05-16T01:32:38.406Z,0.00
2023-05-16T01:33:39.416Z,0.00
2023-05-16T01:34:38.358Z,0.00
2023-05-16T01:35:38.344Z,0.00
2023-05-16T01:36:38.360Z,0.00
2023-05-16T01:37:38.336Z,0.00
2023-05-16T01:38:38.324Z,0.00
2023-05-16T01:39:38.330Z,0.00
2023-05-16T01:40:38.311Z,0.00
2023-05-16T01:41:38.385Z,0.00
2023-05-16T01:42:38.303Z,0.00
2023-05-16T01:43:38.288Z,0.00
2023-05-16T01:44:38.274Z,0.00
2023-05-16T01:45:38.268Z,0.00
2023-05-16T01:46:38.259Z,0.00
2023-05-16T01:47:38.323Z,0.00
2023-05-16T01:48:38.237Z,0.00
2023-05-16T01:49:38.217Z,0.00
2023-05-16T01:50:38.243Z,0.00
2023-05-16T01:51:38.209Z,0.00
2023-05-16T01:52:38.219Z,0.00
2023-05-16T01:53:38.217Z,0.00
2023-05-16T01:54:38.212Z,0.00
2023-05-16T01:55:38.173Z,0.00
2023-05-16T01:56:38.191Z,0.00
2023-05-16T01:57:38.187Z,0.00
2023-05-16T01:58:38.174Z,0.00
2023-05-16T01:59:38.151Z,0.00
2023-05-16T02:00:38.299Z,0.00
2023-05-16T02:01:38.244Z,0.00
2023-05-16T02:02:38.820Z,0.00
2023-05-16T02:03:38.229Z,0.00
2023-05-16T02:04:38.118Z,0.00
2023-05-16T02:05:38.094Z,0.00
2023-05-16T02:06:38.075Z,0.00
2023-05-16T02:07:38.113Z,0.00
2023-05-16T02:08:38.097Z,0.00
2023-05-16T02:09:38.082Z,0.00
2023-05-16T02:10:38.068Z,0.00
2023-05-16T02:11:38.077Z,0.00
2023-05-16T02:12:38.080Z,0.00
2023-05-16T02:13:38.061Z,0.00
2023-05-16T02:14:38.050Z,0.00
2023-05-16T02:15:38.029Z,0.00
2023-05-16T02:16:38.077Z,0.00
2023-05-16T02:17:38.047Z,0.00
2023-05-16T02:18:38.062Z,0.00
2023-05-16T02:19:37.976Z,0.00
2023-05-16T02:20:38.028Z,0.00
2023-05-16T02:21:37.980Z,0.00
2023-05-16T02:22:37.973Z,0.00
2023-05-16T02:23:37.997Z,0.00
2023-05-16T02:24:37.987Z,0.00
2023-05-16T02:25:37.947Z,0.00
2023-05-16T02:26:37.944Z,0.00
2023-05-16T02:27:37.928Z,0.00
2023-05-16T02:28:37.960Z,0.00
2023-05-16T02:29:37.904Z,0.00
2023-05-16T02:30:37.975Z,0.00
2023-05-16T02:31:37.979Z,0.00
2023-05-16T02:32:37.911Z,0.00
2023-05-16T02:33:37.943Z,0.00
2023-05-16T02:34:37.880Z,0.00
2023-05-16T02:35:37.881Z,0.00
2023-05-16T02:36:37.865Z,0.00
2023-05-16T02:37:37.860Z,0.00
2023-05-16T02:38:37.856Z,0.00
2023-05-16T02:39:37.862Z,0.00
2023-05-16T02:40:37.833Z,0.00
2023-05-16T02:41:37.822Z,0.00
2023-05-16T02:42:37.897Z,0.00
2023-05-16T02:43:37.823Z,0.00
2023-05-16T02:44:37.816Z,0.00
2023-05-16T02:45:37.778Z,0.00
2023-05-16T02:46:37.905Z,0.00
2023-05-16T02:47:37.802Z,0.00
2023-05-16T02:48:37.751Z,0.00
2023-05-16T02:49:37.798Z,0.00
2023-05-16T02:50:37.773Z,0.00
2023-05-16T02:51:37.774Z,0.00
2023-05-16T02:52:37.739Z,0.00
2023-05-16T02:53:37.733Z,0.00
2023-05-16T02:54:37.728Z,0.00
2023-05-16T02:55:37.922Z,0.00
2023-05-16T02:56:37.706Z,0.00
2023-05-16T02:57:37.697Z,0.00
2023-05-16T02:58:37.709Z,0.00
2023-05-16T02:59:37.703Z,0.00
2023-05-16T03:00:37.721Z,0.00
2023-05-16T03:01:37.729Z,0.00
2023-05-16T03:02:37.769Z,0.00
2023-05-16T03:03:37.862Z,0.00
2023-05-16T03:04:37.655Z,0.00
2023-05-16T03:05:37.661Z,4.00
2023-05-16T03:06:37.627Z,4.00
2023-05-16T03:07:37.629Z,4.00
2023-05-16T03:08:37.620Z,0.00
2023-05-16T03:09:37.599Z,4.00
2023-05-16T03:10:37.605Z,4.00
2023-05-16T03:11:37.617Z,4.00
2023-05-16T03:12:37.583Z,4.00
2023-05-16T03:13:37.590Z,4.00
2023-05-16T03:14:37.574Z,4.00
2023-05-16T03:15:37.562Z,8.00
2023-05-16T03:16:37.673Z,4.00
2023-05-16T03:17:37.632Z,8.00
2023-05-16T03:18:37.584Z,8.00
2023-05-16T03:19:37.530Z,8.00
2023-05-16T03:20:37.539Z,12.00
2023-05-16T03:21:37.508Z,8.00
2023-05-16T03:22:37.545Z,12.00
2023-05-16T03:23:37.506Z,12.00
2023-05-16T03:24:37.569Z,16.00
2023-05-16T03:25:37.489Z,12.00
2023-05-16T03:26:37.494Z,16.00
2023-05-16T03:27:37.540Z,16.00
2023-05-16T03:28:37.511Z,20.00
2023-05-16T03:29:37.461Z,16.00
2023-05-16T03:30:37.458Z,20.00
2023-05-16T03:31:38.324Z,24.00
2023-05-16T03:32:37.507Z,24.00
2023-05-16T03:33:37.476Z,28.00
2023-05-16T03:34:37.441Z,28.00
2023-05-16T03:35:37.420Z,28.00
2023-05-16T03:36:37.435Z,28.00
2023-05-16T03:37:37.404Z,32.00
2023-05-16T03:38:37.409Z,32.00
2023-05-16T03:39:37.392Z,36.00
2023-05-16T03:40:37.371Z,36.00
2023-05-16T03:41:37.372Z,36.00
2023-05-16T03:42:37.388Z,40.00
2023-05-16T03:43:37.347Z,40.00
2023-05-16T03:44:37.349Z,44.00
2023-05-16T03:45:37.428Z,44.00
2023-05-16T03:46:37.315Z,48.00
2023-05-16T04:03:13.115Z,100.00
2023-05-16T04:04:13.046Z,108.00
2023-05-16T04:05:13.098Z,116.00
2023-05-16T04:06:13.227Z,120.00
2023-05-16T04:07:14.194Z,136.00
2023-05-16T04:08:14.745Z,148.00
2023-05-16T04:09:14.158Z,160.00
2023-05-16T04:10:14.179Z,172.00
2023-05-16T04:11:14.189Z,192.00
2023-05-16T04:12:15.134Z,208.00
2023-05-16T04:13:14.204Z,216.00
2023-05-16T04:14:14.157Z,228.00
2023-05-16T04:15:14.143Z,236.00
2023-05-16T04:16:14.122Z,240.00
2023-05-16T04:17:14.280Z,236.00
2023-05-16T04:18:14.150Z,236.00
2023-05-16T04:19:14.150Z,244.00
2023-05-16T04:20:14.081Z,260.00
2023-05-16T04:21:14.134Z,288.00
2023-05-16T04:22:14.049Z,308.00
2023-05-16T04:23:14.085Z,308.00
2023-05-16T04:24:14.062Z,288.00
2023-05-16T04:25:14.029Z,276.00
2023-05-16T04:26:14.030Z,280.00
2023-05-16T04:27:14.006Z,264.00
2023-05-16T04:28:14.016Z,236.00
2023-05-16T04:29:14.055Z,236.00
2023-05-16T04:30:14.028Z,224.00
2023-05-16T04:31:14.033Z,224.00
2023-05-16T04:32:13.974Z,228.00
2023-05-16T04:33:14.066Z,208.00
2023-05-16T04:34:13.988Z,200.00
2023-05-16T04:35:13.972Z,204.00
2023-05-16T04:36:13.957Z,204.00
2023-05-16T04:37:13.935Z,204.00
2023-05-16T04:38:13.963Z,200.00
2023-05-16T04:39:13.929Z,196.00
2023-05-16T04:40:13.901Z,200.00
2023-05-16T04:41:13.937Z,204.00
2023-05-16T04:42:13.903Z,212.00
2023-05-16T04:43:13.967Z,224.00
2023-05-16T04:44:13.886Z,248.00
2023-05-16T04:45:13.893Z,276.00
2023-05-16T04:46:13.911Z,300.00
2023-05-16T04:47:13.871Z,328.00
2023-05-16T04:48:13.876Z,356.00
2023-05-16T04:49:13.874Z,396.00
2023-05-16T04:50:13.864Z,456.00
2023-05-16T04:51:14.771Z,504.00
2023-05-16T04:52:13.819Z,552.00
2023-05-16T04:53:13.862Z,632.00
2023-05-16T04:54:13.871Z,692.00
2023-05-16T04:55:13.786Z,712.00
2023-05-16T04:56:13.844Z,676.00
2023-05-16T04:57:13.806Z,636.00
2023-05-16T04:58:13.790Z,636.00
2023-05-16T04:59:13.803Z,660.00
2023-05-16T05:00:13.777Z,688.00
2023-05-16T05:01:13.822Z,720.00
2023-05-16T05:02:13.791Z,744.00
2023-05-16T05:03:13.752Z,744.00
2023-05-16T05:04:13.743Z,724.00
2023-05-16T05:05:13.788Z,708.00
2023-05-16T05:06:13.730Z,724.00
2023-05-16T05:07:13.742Z,752.00
2023-05-16T05:08:13.710Z,764.00
2023-05-16T05:09:13.753Z,808.00
2023-05-16T05:10:13.731Z,908.00
2023-05-16T05:11:13.690Z,1020.00
2023-05-16T05:12:14.695Z,1100.00
2023-05-16T05:13:13.690Z,1092.00
2023-05-16T05:14:13.652Z,1072.00
2023-05-16T05:15:13.690Z,1080.00
2023-05-16T05:16:13.662Z,1112.00
2023-05-16T05:17:13.632Z,1156.00
2023-05-16T05:18:13.772Z,1208.00
2023-05-16T05:19:13.680Z,1292.00
2023-05-16T05:20:13.628Z,1400.00
2023-05-16T05:21:13.656Z,1568.00
2023-05-16T05:22:13.591Z,1728.00
2023-05-16T05:23:13.600Z,1832.00
2023-05-16T05:24:13.587Z,1868.00
2023-05-16T05:25:13.609Z,1908.00
2023-05-16T05:26:13.575Z,2072.00
2023-05-16T05:27:13.607Z,2104.00
2023-05-16T05:28:13.580Z,2012.00
2023-05-16T05:29:13.533Z,1940.00
2023-05-16T05:30:13.545Z,1924.00
2023-05-16T05:31:13.637Z,1920.00
2023-05-16T05:32:13.558Z,1884.00
2023-05-16T05:33:13.588Z,1776.00
2023-05-16T05:34:13.562Z,1672.00
2023-05-16T05:35:13.497Z,1612.00
2023-05-16T05:36:13.478Z,1604.00
2023-05-16T05:37:13.501Z,1580.00
2023-05-16T05:38:13.474Z,1544.00
2023-05-16T05:39:13.487Z,1528.00
2023-05-16T05:40:13.450Z,1528.00
2023-05-16T05:41:13.458Z,1512.00
2023-05-16T05:42:13.472Z,1516.00
2023-05-16T05:43:13.458Z,1568.00
2023-05-16T05:44:14.438Z,1700.00
2023-05-16T05:45:13.417Z,1820.00
2023-05-16T05:46:13.449Z,1872.00
2023-05-16T05:47:13.430Z,1812.00
2023-05-16T05:48:13.500Z,1796.00
2023-05-16T05:49:13.386Z,1836.00
2023-05-16T05:50:13.397Z,1868.00
2023-05-16T05:51:13.402Z,1888.00
2023-05-16T05:52:13.371Z,1900.00
2023-05-16T05:53:13.374Z,1892.00
2023-05-16T05:54:13.380Z,1852.00
2023-05-16T05:55:13.344Z,1820.00
2023-05-16T05:56:13.344Z,1792.00
2023-05-16T05:57:13.305Z,1784.00
2023-05-16T05:58:13.318Z,1836.00
2023-05-16T05:59:13.362Z,1844.00
2023-05-16T06:00:13.306Z,1772.00
2023-05-16T06:01:13.300Z,1732.00
2023-05-16T06:02:13.412Z,1728.00
2023-05-16T06:03:13.319Z,1756.00
2023-05-16T06:04:13.302Z,1856.00
2023-05-16T06:05:13.286Z,2028.00
2023-05-16T06:06:14.836Z,2132.00
2023-05-16T06:07:13.261Z,2240.00
2023-05-16T06:08:13.311Z,2256.00
2023-05-16T06:09:13.252Z,2380.00
2023-05-16T06:10:13.270Z,2428.00
2023-05-16T06:11:13.251Z,2472.00
2023-05-16T06:12:14.231Z,2476.00
2023-05-16T06:13:13.269Z,2440.00
2023-05-16T06:14:13.204Z,2388.00
2023-05-16T06:15:13.227Z,2564.00
2023-05-16T06:16:13.190Z,2948.00
2023-05-16T06:17:13.243Z,3140.00
2023-05-16T06:18:13.316Z,3268.00
2023-05-16T06:19:13.215Z,3168.00
2023-05-16T06:20:13.162Z,3464.00
2023-05-16T06:21:13.152Z,3756.00
2023-05-16T06:22:13.395Z,3248.00
2023-05-16T06:23:13.175Z,2616.00
2023-05-16T06:24:13.139Z,2224.00
2023-05-16T06:25:13.147Z,1928.00
2023-05-16T06:26:13.117Z,1736.00
2023-05-16T06:27:13.098Z,1692.00
2023-05-16T06:28:13.163Z,1668.00
2023-05-16T06:29:13.781Z,1588.00
2023-05-16T06:30:13.098Z,1532.00
2023-05-16T06:31:13.083Z,1532.00
2023-05-16T06:32:13.591Z,1612.00
2023-05-16T06:33:14.082Z,1752.00
2023-05-16T06:34:13.034Z,1796.00
2023-05-16T06:35:13.056Z,2064.00
2023-05-16T06:36:13.051Z,2476.00
2023-05-16T06:37:13.046Z,2732.00
2023-05-16T06:38:13.028Z,2784.00
2023-05-16T06:39:13.045Z,2696.00
2023-05-16T06:40:13.043Z,2708.00
2023-05-16T06:41:12.989Z,2884.00
2023-05-16T06:42:13.078Z,2800.00
2023-05-16T06:43:12.976Z,2468.00
2023-05-16T06:44:12.988Z,2192.00
2023-05-16T06:45:12.970Z,1952.00
2023-05-16T06:46:12.992Z,1784.00
2023-05-16T06:47:13.008Z,1636.00
2023-05-16T06:48:12.995Z,1516.00
2023-05-16T06:49:12.941Z,1424.00
2023-05-16T06:50:12.955Z,1388.00
2023-05-16T06:51:12.923Z,1412.00
2023-05-16T06:52:12.905Z,1388.00
2023-05-16T06:53:12.949Z,1468.00
2023-05-16T06:54:12.990Z,1636.00
2023-05-16T06:55:12.946Z,1840.00
2023-05-16T06:56:12.915Z,1992.00
2023-05-16T06:57:12.863Z,2016.00
2023-05-16T06:58:12.873Z,2032.00
2023-05-16T06:59:12.879Z,2036.00
2023-05-16T07:00:12.883Z,2068.00
2023-05-16T07:01:12.918Z,2108.00
2023-05-16T07:02:12.836Z,2104.00
2023-05-16T07:03:12.907Z,2072.00
2023-05-16T07:04:12.993Z,2076.00
2023-05-16T07:05:12.850Z,2236.00
2023-05-16T07:06:12.818Z,2108.00
2023-05-16T07:07:12.806Z,2116.00
2023-05-16T07:08:12.815Z,2160.00
2023-05-16T07:09:12.796Z,2228.00
2023-05-16T07:10:12.840Z,2308.00
2023-05-16T07:11:12.795Z,2356.00
2023-05-16T07:12:12.806Z,2436.00
2023-05-16T07:13:12.755Z,2496.00
2023-05-16T07:14:12.772Z,2556.00
2023-05-16T07:15:12.737Z,2624.00
2023-05-16T07:16:12.757Z,2744.00
2023-05-16T07:17:12.756Z,2876.00
2023-05-16T07:18:12.755Z,2992.00
2023-05-16T07:19:12.743Z,3096.00
2023-05-16T07:20:12.693Z,3196.00
2023-05-16T07:21:12.694Z,3236.00
2023-05-16T07:22:12.713Z,3284.00
2023-05-16T07:23:12.656Z,3360.00
2023-05-16T07:24:12.670Z,3324.00
2023-05-16T07:25:12.938Z,3288.00
2023-05-16T07:26:12.649Z,3264.00
2023-05-16T07:27:12.673Z,3312.00
2023-05-16T07:28:13.359Z,3420.00
2023-05-16T07:29:12.636Z,3504.00
2023-05-16T07:30:12.628Z,3576.00
2023-05-16T07:31:12.706Z,3568.00
2023-05-16T07:32:12.671Z,3504.00
2023-05-16T07:33:12.727Z,3552.00
2023-05-16T07:34:12.592Z,3724.00
2023-05-16T07:35:12.610Z,3972.00
2023-05-16T07:36:16.803Z,4000.00
2023-05-16T07:37:14.708Z,3904.00
2023-05-16T07:38:12.595Z,4000.00
2023-05-16T07:39:12.582Z,4192.00
2023-05-16T07:40:13.248Z,4620.00
2023-05-16T07:41:12.578Z,5048.00
2023-05-16T07:42:12.542Z,5272.00
2023-05-16T07:43:12.521Z,5524.00
2023-05-16T07:44:12.532Z,5944.00
2023-05-16T07:45:12.542Z,6404.00
2023-05-16T07:46:12.618Z,6340.00
2023-05-16T07:47:12.498Z,6544.00
2023-05-16T07:48:12.572Z,7168.00
2023-05-16T07:49:12.506Z,8592.00
2023-05-16T07:50:12.510Z,9004.00
2023-05-16T07:51:12.476Z,9288.00
2023-05-16T07:52:12.467Z,9420.00
2023-05-16T07:53:13.316Z,10152.00
2023-05-16T07:54:12.423Z,10172.00
2023-05-16T07:55:12.451Z,9292.00
2023-05-16T07:56:12.462Z,8748.00
2023-05-16T07:57:12.404Z,7548.00
2023-05-16T07:58:12.403Z,6304.00
2023-05-16T07:59:12.466Z,5540.00
2023-05-16T08:00:12.383Z,5204.00
2023-05-16T08:01:12.430Z,5104.00
2023-05-16T08:02:12.403Z,4892.00
2023-05-16T08:03:12.617Z,4548.00
2023-05-16T08:04:12.367Z,4260.00
2023-05-16T08:05:12.368Z,4048.00
2023-05-16T08:06:12.416Z,3924.00
2023-05-16T08:07:13.136Z,3980.00
2023-05-16T08:08:12.346Z,4252.00
2023-05-16T08:09:12.299Z,4592.00
2023-05-16T08:10:13.633Z,5040.00
2023-05-16T08:11:13.376Z,5504.00
2023-05-16T08:12:12.337Z,5740.00
2023-05-16T08:13:12.290Z,5832.00
2023-05-16T08:14:12.297Z,5872.00
2023-05-16T08:15:12.285Z,6272.00
2023-05-16T08:16:12.333Z,6996.00
2023-05-16T08:17:12.299Z,7472.00
2023-05-16T08:18:12.279Z,7680.00
2023-05-16T08:19:12.335Z,7200.00
2023-05-16T08:20:12.284Z,6536.00
2023-05-16T08:21:12.260Z,5856.00
2023-05-16T08:22:12.217Z,5396.00
2023-05-16T08:23:12.291Z,5076.00
2023-05-16T08:24:12.241Z,4892.00
2023-05-16T08:25:12.189Z,4592.00
2023-05-16T08:26:12.185Z,4156.00
2023-05-16T08:27:12.194Z,3764.00
2023-05-16T08:28:12.207Z,3440.00
2023-05-16T08:29:12.192Z,3216.00
2023-05-16T08:30:12.165Z,3016.00
2023-05-16T08:31:12.250Z,2880.00
2023-05-16T08:32:12.152Z,2824.00
2023-05-16T08:33:12.193Z,2840.00
2023-05-16T08:34:12.865Z,2912.00
2023-05-16T08:35:12.119Z,3028.00
2023-05-16T08:36:12.133Z,3156.00
2023-05-16T08:37:12.113Z,3316.00
2023-05-16T08:38:12.132Z,3532.00
2023-05-16T08:39:12.115Z,3804.00
2023-05-16T08:40:12.078Z,4104.00
2023-05-16T08:41:12.186Z,4472.00
2023-05-16T08:42:12.084Z,4968.00
2023-05-16T08:43:44.010Z,5272.00
2023-05-16T08:44:12.743Z,5468.00
2023-05-16T08:45:12.038Z,5512.00
2023-05-16T08:46:12.046Z,5532.00
2023-05-16T08:47:12.101Z,5700.00
2023-05-16T08:48:12.127Z,5864.00
2023-05-16T08:49:12.030Z,6132.00
2023-05-16T08:50:12.007Z,6212.00
2023-05-16T08:51:12.029Z,6204.00
2023-05-16T08:52:12.017Z,6296.00
2023-05-16T08:53:12.013Z,6596.00
2023-05-16T08:54:11.994Z,6968.00
2023-05-16T08:55:12.894Z,7424.00
2023-05-16T08:56:12.830Z,7744.00
2023-05-16T08:57:12.036Z,8084.00
2023-05-16T08:58:11.948Z,8192.00
2023-05-16T08:59:11.963Z,8056.00
2023-05-16T09:00:12.696Z,7580.00
2023-05-16T09:01:11.949Z,7236.00
2023-05-16T09:02:11.983Z,6984.00
2023-05-16T09:03:12.933Z,6864.00
2023-05-16T09:04:11.953Z,6644.00
2023-05-16T09:05:11.904Z,6536.00
2023-05-16T09:06:11.888Z,6280.00
2023-05-16T09:07:11.980Z,5944.00
2023-05-16T09:08:11.885Z,5800.00
2023-05-16T09:09:11.849Z,5788.00
2023-05-16T09:10:12.857Z,6128.00
2023-05-16T09:11:11.858Z,6472.00
2023-05-16T09:12:11.862Z,6604.00
2023-05-16T09:13:11.858Z,6604.00
2023-05-16T09:14:11.854Z,6708.00
2023-05-16T09:15:11.803Z,6904.00
2023-05-16T09:16:11.815Z,7156.00
2023-05-16T09:17:12.707Z,7480.00
2023-05-16T09:18:12.905Z,7796.00
2023-05-16T09:19:11.835Z,8004.00
2023-05-16T09:20:11.774Z,8380.00
2023-05-16T09:21:11.773Z,8736.00
2023-05-16T09:22:11.761Z,8920.00
2023-05-16T09:23:12.041Z,9092.00
2023-05-16T09:24:11.777Z,9312.00
2023-05-16T09:25:21.763Z,9584.00
2023-05-16T09:26:13.742Z,9652.00
2023-05-16T09:27:11.799Z,9664.00
2023-05-16T09:28:11.763Z,9412.00
2023-05-16T09:29:11.744Z,9260.00
2023-05-16T09:30:11.729Z,9120.00
2023-05-16T09:31:11.771Z,9168.00
2023-05-16T09:32:11.703Z,9408.00
2023-05-16T09:33:11.724Z,9892.00
2023-05-16T09:34:11.693Z,10664.00
2023-05-16T09:35:11.664Z,11152.00
2023-05-16T09:36:11.681Z,11500.00
2023-05-16T09:37:11.712Z,11912.00
2023-05-16T09:38:11.732Z,12392.00
2023-05-16T09:39:11.633Z,13052.00
2023-05-16T09:40:11.665Z,13464.00
2023-05-16T09:41:11.651Z,13784.00
2023-05-16T09:42:11.700Z,13892.00
2023-05-16T09:43:11.625Z,13908.00
2023-05-16T09:44:11.611Z,13872.00
2023-05-16T09:45:11.625Z,13880.00
2023-05-16T09:46:11.616Z,13428.00
2023-05-16T09:47:11.579Z,13112.00
2023-05-16T09:48:11.568Z,12920.00
2023-05-16T09:49:11.622Z,12932.00
2023-05-16T09:50:11.583Z,12788.00
2023-05-16T09:51:11.592Z,12612.00
2023-05-16T09:52:11.558Z,12584.00
2023-05-16T09:53:11.515Z,12420.00
2023-05-16T09:54:11.533Z,12004.00
2023-05-16T09:55:11.558Z,11728.00
2023-05-16T09:56:11.577Z,11580.00
2023-05-16T09:57:11.556Z,11536.00
2023-05-16T09:58:11.496Z,11268.00
2023-05-16T09:59:11.489Z,11248.00
2023-05-16T10:00:11.497Z,11336.00
2023-05-16T10:01:11.483Z,11920.00
2023-05-16T10:02:11.489Z,12760.00
2023-05-16T10:03:11.564Z,13552.00
2023-05-16T10:04:11.592Z,14548.00
2023-05-16T10:05:11.434Z,16064.00
2023-05-16T10:06:11.928Z,17536.00
2023-05-16T10:07:11.433Z,18688.00
2023-05-16T10:08:11.429Z,19424.00
2023-05-16T10:09:11.415Z,19552.00
2023-05-16T10:10:11.417Z,18848.00
2023-05-16T10:11:11.440Z,19104.00
2023-05-16T10:12:11.384Z,18848.00
2023-05-16T10:13:12.360Z,20288.00
2023-05-16T10:14:11.477Z,20320.00
2023-05-16T10:15:11.376Z,21088.00
2023-05-16T10:16:11.443Z,21696.00
2023-05-16T10:17:11.392Z,21472.00
2023-05-16T10:18:11.373Z,20416.00
2023-05-16T10:19:11.377Z,19552.00
2023-05-16T10:20:11.331Z,19456.00
2023-05-16T10:21:11.968Z,18240.00
2023-05-16T10:22:12.311Z,19328.00
2023-05-16T10:23:11.311Z,18304.00
2023-05-16T10:24:11.327Z,20384.00
2023-05-16T10:25:11.308Z,20160.00
2023-05-16T10:26:11.337Z,17824.00
2023-05-16T10:27:11.309Z,21024.00
2023-05-16T10:28:11.262Z,18976.00
2023-05-16T10:29:11.297Z,18688.00
2023-05-16T10:30:11.268Z,20128.00
2023-05-16T10:31:11.289Z,18912.00
2023-05-16T10:32:11.324Z,18656.00
2023-05-16T10:33:11.237Z,17824.00
2023-05-16T10:34:11.287Z,18688.00
2023-05-16T10:35:11.218Z,18112.00
2023-05-16T10:36:11.231Z,16000.00
2023-05-16T10:37:11.210Z,16000.00
2023-05-16T10:38:11.209Z,14984.00
2023-05-16T10:39:11.221Z,14812.00
2023-05-16T10:40:11.183Z,16384.00
2023-05-16T10:41:11.189Z,16960.00
2023-05-16T10:42:11.207Z,16448.00
2023-05-16T10:43:11.198Z,15808.00
2023-05-16T10:44:11.156Z,16480.00
2023-05-16T10:45:11.227Z,17536.00
2023-05-16T10:46:11.203Z,17888.00
2023-05-16T10:47:11.155Z,15840.00
2023-05-16T10:48:11.200Z,18784.00
2023-05-16T10:49:11.113Z,17408.00
2023-05-16T10:50:11.161Z,17696.00
2023-05-16T10:51:11.089Z,16960.00
2023-05-16T10:52:11.130Z,17024.00
2023-05-16T10:53:11.160Z,16512.00
2023-05-16T10:54:11.088Z,16288.00
2023-05-16T10:55:11.076Z,15968.00
2023-05-16T10:56:11.060Z,15968.00
2023-05-16T10:57:11.094Z,16096.00
2023-05-16T10:58:11.058Z,16128.00
2023-05-16T10:59:11.066Z,13696.00
2023-05-16T11:00:11.121Z,13464.00
2023-05-16T11:01:11.062Z,13164.00
2023-05-16T11:02:11.811Z,12156.00
2023-05-16T11:03:11.101Z,12032.00
2023-05-16T11:04:11.072Z,12128.00
2023-05-16T11:05:11.000Z,12188.00
2023-05-16T11:06:10.984Z,14656.00
2023-05-16T11:07:10.979Z,11768.00
2023-05-16T11:08:11.037Z,11144.00
2023-05-16T11:09:11.084Z,10948.00
2023-05-16T11:10:11.001Z,11604.00
2023-05-16T11:11:11.709Z,13996.00
2023-05-16T11:12:10.961Z,13728.00
2023-05-16T11:13:10.991Z,13600.00
2023-05-16T11:14:10.925Z,13516.00
2023-05-16T11:15:10.961Z,13652.00
2023-05-16T11:16:10.943Z,13552.00
2023-05-16T11:17:10.963Z,13140.00
2023-05-16T11:18:10.987Z,12920.00
2023-05-16T11:19:10.978Z,12728.00
2023-05-16T11:20:10.880Z,9868.00
2023-05-16T11:21:10.933Z,12664.00
2023-05-16T11:22:10.873Z,12984.00
2023-05-16T11:23:10.888Z,13176.00
2023-05-16T11:24:10.882Z,13652.00
2023-05-16T11:25:10.912Z,13948.00
2023-05-16T11:26:10.853Z,13920.00
2023-05-16T11:27:10.861Z,13536.00
2023-05-16T11:28:10.862Z,13576.00
2023-05-16T11:29:10.873Z,13896.00
2023-05-16T11:30:10.806Z,13784.00
2023-05-16T11:31:10.956Z,14056.00
2023-05-16T11:32:10.805Z,12052.00
2023-05-16T11:33:10.787Z,14028.00
2023-05-16T11:34:10.776Z,10712.00
2023-05-16T11:35:12.823Z,12744.00
2023-05-16T11:36:16.213Z,12476.00
2023-05-16T11:37:12.770Z,12324.00
2023-05-16T11:38:10.762Z,9888.00
2023-05-16T11:39:10.759Z,8776.00
2023-05-16T11:40:10.725Z,8908.00
2023-05-16T11:41:10.732Z,12976.00
2023-05-16T11:42:10.697Z,13504.00
2023-05-16T11:43:10.732Z,13748.00
2023-05-16T11:44:10.702Z,13888.00
2023-05-16T11:45:10.690Z,13800.00
2023-05-16T11:46:10.742Z,13600.00
2023-05-16T11:47:11.448Z,13272.00
2023-05-16T11:48:16.550Z,12696.00
2023-05-16T11:49:11.674Z,13448.00
2023-05-16T11:50:10.678Z,13656.00
2023-05-16T11:51:10.630Z,9632.00
2023-05-16T11:52:10.625Z,9528.00
2023-05-16T11:53:10.705Z,9524.00
2023-05-16T11:54:10.637Z,9656.00
2023-05-16T11:55:10.651Z,9432.00
2023-05-16T11:56:10.610Z,10152.00
2023-05-16T11:57:10.587Z,13340.00
2023-05-16T11:58:10.570Z,13068.00
2023-05-16T11:59:11.447Z,12824.00
2023-05-16T12:00:10.574Z,12716.00
2023-05-16T12:01:10.575Z,10432.00
2023-05-16T12:02:10.549Z,12672.00
2023-05-16T12:03:10.665Z,13028.00
2023-05-16T12:04:10.674Z,9700.00
2023-05-16T12:05:10.620Z,9588.00
2023-05-16T12:06:10.516Z,9516.00
2023-05-16T12:07:10.512Z,9492.00
2023-05-16T12:08:10.537Z,9296.00
2023-05-16T12:09:10.519Z,9144.00
2023-05-16T12:10:10.579Z,9016.00
2023-05-16T12:11:10.479Z,9548.00
2023-05-16T12:12:10.470Z,9328.00
2023-05-16T12:13:10.480Z,10420.00
2023-05-16T12:14:10.477Z,9656.00
2023-05-16T12:15:10.517Z,11172.00
2023-05-16T12:16:10.483Z,13180.00
2023-05-16T12:17:10.494Z,13108.00
2023-05-16T12:18:10.626Z,13524.00
2023-05-16T12:19:10.474Z,14052.00
2023-05-16T12:20:11.560Z,14224.00
2023-05-16T12:21:11.962Z,14284.00
2023-05-16T12:22:11.095Z,14192.00
2023-05-16T12:23:10.439Z,14152.00
2023-05-16T12:24:10.453Z,14208.00
2023-05-16T12:25:10.402Z,14080.00
2023-05-16T12:26:10.427Z,13900.00
2023-05-16T12:27:10.362Z,14100.00
2023-05-16T12:28:10.362Z,13296.00
2023-05-16T12:29:10.360Z,9784.00
2023-05-16T12:30:10.451Z,14012.00
2023-05-16T12:31:22.966Z,13036.00
2023-05-16T12:32:12.394Z,13896.00
2023-05-16T12:33:10.414Z,13868.00
2023-05-16T12:34:10.317Z,10968.00
2023-05-16T12:35:10.338Z,13748.00
2023-05-16T12:36:10.342Z,9832.00
2023-05-16T12:37:10.366Z,9472.00
2023-05-16T12:38:10.293Z,12796.00